Honaker, Virginia
Current Conditions -  °F | °C
As of 1:15 PM on Thursday 18 Dec 2014 (Local Time) from KJFZ Reporting Station
Clear Clear  
Wind Chill: 33°   Ceiling: Unl
Heat Index: 37°   Visibility: 10mi
Dew Point: 19°   Wind: 5mph
Humidity: 50%   Direction: 280°W
Pressure: 30.09"   Gusts: NA
Location:  37.02°N, 81.97°W
Report Text: KJFZ 181815Z AUTO 28004KT 10SM CLR 03/M07 A3009 RMK AO2 T00251071
Loading
Personal Weather Stations






























Interactive Weather Map New forecast layout! Learn more

10-Day Weather Forecast

Advertisements
Track Severe Weather on mobile